Time;durP1;ratioP1;P1;durP2;ratioP2;P2;SDS_P1;SDS_P2;PMS_P1;PMS_P2;Temp;Humidity;BMP_temperature;BMP_pressure;BME280_temperature;BME280_humidity;BME280_pressure;Samples;Min_cycle;Max_cycle;Signal;HPM_P1;HPM_P2
2022/08/13 00:01:40;;;;;;;3.05;2.38;;;21.40;36.50;;;23.92;29.17;97613.47;5066934;28;20361;-42
2022/08/13 00:04:15;;;;;;;2.58;1.90;;;21.40;36.40;;;23.95;29.18;97613.81;5066780;28;20251;-44
2022/08/13 00:09:30;;;;;;;2.28;1.90;;;21.40;36.70;;;23.95;29.01;97607.53;5065165;28;20056;-42
2022/08/13 00:15:21;;;;;;;3.33;1.92;;;21.40;36.70;;;23.93;29.24;97594.19;5066518;28;20044;-42
2022/08/13 00:17:49;;;;;;;2.20;2.00;;;21.40;36.60;;;23.87;29.44;97591.66;5066402;28;20036;-42
2022/08/13 00:20:50;;;;;;;2.08;1.85;;;21.50;36.60;;;23.89;29.19;97590.31;5066551;28;20044;-42
2022/08/13 00:23:27;;;;;;;4.10;2.20;;;21.50;36.60;;;23.90;29.25;97599.31;5067131;28;20243;-42
2022/08/13 00:26:15;;;;;;;2.10;1.65;;;21.60;36.20;;;23.92;29.41;97595.28;5068191;28;20057;-42
2022/08/13 00:28:57;;;;;;;2.13;1.92;;;21.60;36.20;;;23.93;29.36;97590.66;5066427;28;20429;-42
2022/08/13 00:31:26;;;;;;;3.20;1.80;;;21.60;36.20;;;23.94;29.51;97595.00;5065272;28;20056;-42
2022/08/13 00:33:58;;;;;;;3.63;2.38;;;21.60;36.30;;;23.94;29.19;97598.56;5066625;28;20388;-41
2022/08/13 00:36:30;;;;;;;2.30;2.08;;;21.60;36.40;;;23.95;29.35;97597.50;5065658;28;20045;-42
2022/08/13 00:39:09;;;;;;;2.00;1.90;;;21.60;36.40;;;23.98;29.44;97596.16;5067783;28;20250;-42
2022/08/13 00:41:44;;;;;;;2.53;1.80;;;21.60;36.90;;;23.96;29.42;97593.72;5065721;28;20056;-42
2022/08/13 00:44:31;;;;;;;2.78;1.85;;;21.50;36.90;;;23.98;29.44;97598.88;5067014;28;20362;-41
2022/08/13 00:49:50;;;;;;;4.57;2.35;;;21.40;36.90;;;23.94;29.45;97593.13;5067342;28;20286;-41
2022/08/13 00:52:32;;;;;;;2.92;2.20;;;21.40;37.00;;;23.92;29.55;97592.56;5065307;28;20059;-41
2022/08/13 00:55:11;;;;;;;2.55;1.90;;;21.40;37.20;;;23.92;29.59;97589.00;5066051;28;20056;-41
2022/08/13 00:57:39;;;;;;;2.55;2.35;;;21.30;37.60;;;23.88;29.66;97585.13;5066438;28;20644;-41
2022/08/13 01:00:15;;;;;;;2.42;1.80;;;21.40;37.30;;;23.87;29.90;97584.31;5066375;28;20048;-42
2022/08/13 01:02:47;;;;;;;5.72;2.25;;;21.40;37.50;;;23.83;30.05;97580.47;5065545;28;20382;-42
2022/08/13 01:05:25;;;;;;;2.20;1.98;;;21.40;37.60;;;23.81;29.94;97584.47;5065888;28;20059;-41
2022/08/13 01:07:57;;;;;;;4.43;2.40;;;21.40;37.60;;;23.78;30.42;97583.09;5065815;28;20048;-42
2022/08/13 01:10:26;;;;;;;3.20;2.47;;;21.30;37.60;;;23.74;30.29;97579.19;5065093;28;20062;-42
2022/08/13 01:12:56;;;;;;;3.50;2.58;;;21.30;37.80;;;23.74;30.28;97590.06;5066886;28;20043;-42
2022/08/13 01:15:25;;;;;;;5.70;2.88;;;21.30;37.90;;;23.74;30.56;97585.44;5066245;28;20049;-41
2022/08/13 01:18:17;;;;;;;2.55;2.35;;;21.30;38.10;;;23.75;30.28;97592.53;5065310;28;20052;-42
2022/08/13 01:21:00;;;;;;;3.88;2.88;;;21.30;38.10;;;23.73;30.31;97593.84;5069529;28;20048;-41
2022/08/13 01:23:30;;;;;;;5.32;2.88;;;21.20;38.30;;;23.72;30.48;97595.72;5068226;28;20060;-41
2022/08/13 01:26:08;;;;;;;4.55;2.85;;;21.20;38.30;;;23.67;30.37;97594.81;5070231;28;20257;-41
2022/08/13 01:28:38;;;;;;;3.53;2.58;;;21.10;38.50;;;23.56;30.34;97594.66;5069545;28;20056;-42
2022/08/13 01:31:15;;;;;;;3.10;2.70;;;21.00;38.50;;;23.50;30.81;97597.56;5069800;28;20048;-43
2022/08/13 01:33:49;;;;;;;2.75;2.55;;;20.90;38.90;;;23.40;30.41;97598.19;5068168;28;20060;-41
2022/08/13 01:36:21;;;;;;;3.97;2.70;;;20.80;39.10;;;23.29;30.69;97593.66;5069869;28;20253;-41
2022/08/13 01:39:10;;;;;;;3.75;2.50;;;20.60;39.10;;;23.25;30.79;97597.94;5068858;28;20051;-41
2022/08/13 01:41:48;;;;;;;3.05;2.75;;;20.50;39.40;;;23.15;30.89;97595.84;5068975;28;20235;-41
2022/08/13 01:44:25;;;;;;;2.53;2.33;;;20.40;39.50;;;23.06;31.32;97591.88;5069478;28;20051;-42
2022/08/13 01:53:13;;;;;;;3.08;2.60;;;20.00;40.30;;;22.80;31.47;97589.44;5067479;28;20053;-41
2022/08/13 01:55:54;;;;;;;2.50;2.30;;;19.90;41.10;;;22.71;31.46;97590.06;5070109;28;20059;-42
2022/08/13 01:58:47;;;;;;;3.67;3.17;;;19.80;40.90;;;22.67;31.78;97588.91;5067980;28;20064;-41
2022/08/13 02:01:34;;;;;;;2.78;2.42;;;19.80;41.00;;;22.64;31.81;97592.91;5070321;28;20235;-41
2022/08/13 02:04:13;;;;;;;3.10;2.35;;;19.80;41.00;;;22.59;31.83;97587.41;5070177;28;20047;-41
2022/08/13 02:06:52;;;;;;;3.72;2.70;;;19.70;41.50;;;22.53;32.12;97583.75;5068530;28;20056;-41
2022/08/13 02:09:26;;;;;;;4.38;2.60;;;19.70;41.50;;;22.47;32.03;97581.16;5069829;28;20064;-41
2022/08/13 02:12:15;;;;;;;3.13;2.58;;;19.60;41.90;;;22.41;32.19;97585.66;5067588;28;20255;-41
2022/08/13 02:15:06;;;;;;;2.95;2.38;;;19.60;42.50;;;22.35;32.29;97583.91;5067756;28;20367;-42
2022/08/13 02:17:40;;;;;;;3.58;2.80;;;19.50;41.90;;;22.27;32.54;97582.38;5068816;28;20052;-41
2022/08/13 02:20:34;;;;;;;3.10;2.80;;;19.40;42.10;;;22.22;32.76;97588.50;5067543;28;20257;-41
2022/08/13 02:23:08;;;;;;;4.30;3.00;;;19.30;42.00;;;22.17;32.46;97592.97;5068306;28;20248;-41
2022/08/13 02:25:36;;;;;;;2.72;2.53;;;19.40;42.40;;;22.14;33.03;97593.44;5069219;28;20052;-41
2022/08/13 02:28:04;;;;;;;3.00;2.72;;;19.30;42.80;;;22.08;32.90;97591.66;5068452;28;20051;-41
2022/08/13 02:30:51;;;;;;;;;;;19.20;43.20;;;22.23;32.54;97587.41;5068108;28;20060;-41
2022/08/13 02:33:24;;;;;;;3.58;3.20;;;19.10;45.60;;;22.08;33.05;97597.09;5068902;28;19928;-41
2022/08/13 02:35:54;;;;;;;13.55;3.03;;;19.10;43.60;;;21.93;33.33;97594.88;5066782;28;20060;-41
2022/08/13 02:38:22;;;;;;;7.95;4.00;;;19.00;43.80;;;21.86;33.53;97592.25;5068557;28;20055;-41
2022/08/13 02:43:46;;;;;;;3.58;3.03;;;18.90;44.10;;;21.77;34.09;97602.63;5068227;28;20048;-41
2022/08/13 02:46:26;;;;;;;4.80;3.47;;;18.90;44.20;;;21.75;34.00;97606.63;5067125;28;20517;-41
2022/08/13 02:48:58;;;;;;;3.40;3.10;;;18.90;44.60;;;21.68;34.14;97605.94;5067558;28;20060;-41
2022/08/13 02:51:31;;;;;;;4.50;2.72;;;18.90;44.40;;;21.63;34.15;97595.78;5068054;28;20050;-41
2022/08/13 02:54:20;;;;;;;3.58;2.80;;;18.80;45.50;;;21.61;34.39;97600.59;5068646;28;20357;-41
2022/08/13 02:56:51;;;;;;;3.13;2.83;;;18.80;44.90;;;21.53;34.42;97593.63;5066695;28;20055;-41
2022/08/13 02:59:19;;;;;;;5.30;2.83;;;18.70;45.20;;;21.47;34.59;97591.03;5067961;28;20380;-40
2022/08/13 03:02:08;;;;;;;3.28;2.97;;;18.60;45.40;;;21.43;34.92;97605.03;5067848;28;20074;-41
2022/08/13 03:04:44;;;;;;;3.47;2.70;;;18.60;45.60;;;21.40;34.89;97597.38;5068213;28;20051;-41
2022/08/13 03:07:12;;;;;;;6.28;2.55;;;18.60;46.40;;;21.34;34.99;97598.25;5065420;28;20060;-41
2022/08/13 03:09:41;;;;;;;3.17;2.88;;;18.50;46.00;;;21.29;35.17;97603.56;5066212;28;20071;-41
2022/08/13 03:12:16;;;;;;;3.47;2.53;;;18.40;46.20;;;21.26;35.26;97608.63;5066776;28;20048;-41
2022/08/13 03:14:45;;;;;;;3.75;2.45;;;18.40;46.40;;;21.22;35.22;97606.34;5066823;28;20350;-41
2022/08/13 03:17:17;;;;;;;4.10;2.80;;;18.40;46.40;;;21.23;35.20;97609.91;5065641;28;20238;-41
2022/08/13 03:19:51;;;;;;;4.00;2.70;;;18.40;46.20;;;21.16;35.31;97612.69;5066596;28;20055;-41
2022/08/13 03:22:26;;;;;;;3.00;2.45;;;18.30;46.20;;;21.15;35.26;97604.81;5066525;28;20092;-41
2022/08/13 03:24:54;;;;;;;3.35;2.70;;;18.30;46.40;;;21.11;35.21;97609.03;5067816;28;20067;-41
2022/08/13 03:27:26;;;;;;;2.95;2.53;;;18.20;46.40;;;21.07;35.55;97613.25;5048388;28;20052;-41
2022/08/13 03:29:58;;;;;;;4.40;3.00;;;18.20;46.80;;;21.07;35.51;97610.53;5066535;28;20074;-41
2022/08/13 03:32:42;;;;;;;2.90;2.60;;;18.20;46.80;;;21.02;35.65;97609.34;5066390;28;20041;-41
2022/08/13 03:35:21;;;;;;;3.10;2.70;;;18.20;47.00;;;20.97;35.71;97603.78;5067313;28;20048;-40
2022/08/13 03:38:13;;;;;;;4.80;2.40;;;18.10;47.40;;;20.90;35.88;97608.47;5067338;28;20056;-41
2022/08/13 03:41:00;;;;;;;5.05;2.72;;;18.00;47.60;;;20.87;35.88;97608.09;5066848;28;20052;-41
2022/08/13 03:43:33;;;;;;;3.78;2.63;;;17.90;47.60;;;20.89;35.60;97598.69;5067077;28;20056;-40
2022/08/13 03:46:27;;;;;;;3.42;2.90;;;18.00;47.30;;;20.88;35.85;97597.06;5065427;28;20287;-41
2022/08/13 03:48:55;;;;;;;2.85;2.08;;;18.00;47.90;;;20.83;36.09;97600.44;5066842;28;20262;-40
2022/08/13 03:51:23;;;;;;;3.65;2.42;;;18.00;47.60;;;20.81;36.15;97599.03;5067325;28;20247;-41
2022/08/13 03:54:03;;;;;;;3.38;2.20;;;18.00;47.50;;;20.79;36.13;97604.66;5065744;28;20048;-41
2022/08/13 03:56:31;;;;;;;3.15;2.60;;;18.00;47.70;;;20.75;36.26;97606.16;5064968;28;20056;-41
2022/08/13 03:59:03;;;;;;;7.57;2.97;;;17.90;47.80;;;20.73;36.39;97608.28;5065942;28;20046;-41
2022/08/13 04:01:30;;;;;;;6.10;2.58;;;17.90;48.20;;;20.70;36.33;97606.00;5065734;28;20045;-41
2022/08/13 04:03:58;;;;;;;4.72;3.38;;;17.90;47.90;;;20.68;36.50;97597.31;5065834;28;20044;-41
2022/08/13 04:06:27;;;;;;;4.35;2.35;;;17.80;48.20;;;20.66;36.58;97599.41;5067376;28;20243;-41
2022/08/13 04:08:59;;;;;;;6.03;3.38;;;17.80;48.40;;;20.65;36.68;97604.00;5066271;28;20400;-41
2022/08/13 04:11:28;;;;;;;2.95;2.50;;;17.80;48.50;;;20.61;36.60;97599.28;5065674;28;20067;-41
2022/08/13 04:13:57;;;;;;;5.53;2.70;;;17.80;48.50;;;20.58;36.77;97599.69;5066809;28;20350;-41
2022/08/13 04:16:31;;;;;;;3.28;2.30;;;17.70;48.70;;;20.55;37.00;97590.16;5066559;28;20055;-41
2022/08/13 04:19:03;;;;;;;3.85;2.70;;;17.80;48.90;;;20.54;37.00;97602.00;5065716;28;20044;-41
2022/08/13 04:21:44;;;;;;;3.95;2.63;;;17.70;49.00;;;20.55;36.99;97590.16;5065037;28;20044;-41
2022/08/13 04:24:12;;;;;;;2.83;2.20;;;17.70;49.00;;;20.56;37.11;97582.88;5067598;28;20050;-41
2022/08/13 04:26:43;;;;;;;2.95;2.65;;;17.70;49.00;;;20.57;36.92;97590.75;5064545;28;20078;-41
2022/08/13 04:29:14;;;;;;;2.10;1.90;;;17.80;48.90;;;20.55;36.98;97598.28;5067001;28;20347;-40
2022/08/13 04:31:45;;;;;;;2.50;2.20;;;17.70;48.90;;;20.55;37.23;97587.47;5066752;28;20052;-41
2022/08/13 04:34:24;;;;;;;2.92;2.25;;;17.70;49.20;;;20.53;37.12;97592.28;5067416;28;20062;-41
2022/08/13 04:37:09;;;;;;;3.30;2.58;;;17.70;49.10;;;20.55;37.16;97590.16;5066599;28;20046;-40
2022/08/13 04:39:50;;;;;;;3.30;2.50;;;17.70;49.20;;;20.58;37.05;97591.56;5065875;28;20057;-41
2022/08/13 04:42:50;;;;;;;5.38;2.80;;;17.80;48.90;;;20.62;36.96;97593.63;5066116;28;20056;-41
2022/08/13 04:45:21;;;;;;;3.95;2.45;;;17.80;49.70;;;20.60;37.16;97597.63;5067068;28;20052;-41
2022/08/13 04:47:59;;;;;;;4.47;2.67;;;17.80;48.90;;;20.61;37.00;97607.41;5066017;28;20075;-41
2022/08/13 04:50:32;;;;;;;3.30;2.88;;;17.80;49.40;;;20.57;37.10;97604.28;5065202;28;20263;-41
2022/08/13 04:53:06;;;;;;;3.20;2.70;;;17.90;48.90;;;20.60;37.37;97606.53;5064369;28;20041;-40
2022/08/13 04:55:36;;;;;;;3.10;2.67;;;17.90;49.10;;;20.62;37.37;97607.16;5069080;28;20052;-41
2022/08/13 04:58:32;;;;;;;3.08;2.75;;;18.00;48.80;;;20.63;37.34;97603.41;5071186;28;20074;-41
2022/08/13 05:01:09;;;;;;;3.05;2.60;;;17.90;48.90;;;20.69;37.34;97606.25;5068702;28;20741;-41
2022/08/13 05:03:57;;;;;;;2.70;2.33;;;18.00;49.20;;;20.68;37.39;97605.41;5069282;28;20056;-41
2022/08/13 05:06:46;;;;;;;5.53;2.70;;;18.00;48.90;;;20.70;37.29;97610.59;5069347;28;20060;-41
2022/08/13 05:09:20;;;;;;;6.80;2.50;;;18.00;49.10;;;20.69;37.43;97607.09;5068155;28;20396;-41
2022/08/13 05:11:58;;;;;;;3.15;2.83;;;18.00;49.20;;;20.71;37.34;97609.56;5070333;28;20247;-41
2022/08/13 05:14:33;;;;;;;3.25;2.40;;;18.00;49.00;;;20.73;37.32;97610.97;5070790;28;20234;-41
2022/08/13 05:17:04;;;;;;;3.88;2.45;;;18.10;49.00;;;20.78;37.49;97616.53;5070052;28;20365;-41
2022/08/13 05:19:32;;;;;;;5.63;2.72;;;18.10;49.00;;;20.84;37.42;97614.81;5068781;28;20048;-41
2022/08/13 05:22:06;;;;;;;3.22;2.53;;;18.20;48.80;;;20.88;37.29;97616.00;5067837;28;20060;-41
2022/08/13 05:24:52;;;;;;;3.42;2.38;;;18.30;48.80;;;20.95;37.40;97618.59;5071857;28;20392;-41
2022/08/13 05:27:44;;;;;;;4.68;2.17;;;18.40;48.50;;;20.99;37.17;97619.81;5068160;28;20067;-42
2022/08/13 05:30:12;;;;;;;4.60;2.28;;;18.50;48.50;;;20.99;37.17;97612.50;5068078;28;20381;-41
2022/08/13 05:32:59;;;;;;;2.33;2.13;;;18.50;48.50;;;21.03;37.16;97616.44;5069479;28;20074;-42
2022/08/13 05:35:33;;;;;;;2.80;2.40;;;18.50;48.50;;;21.04;37.30;97612.66;5069458;28;20041;-45
2022/08/13 05:38:22;;;;;;;2.45;2.20;;;18.50;49.20;;;21.07;37.34;97618.66;5069845;28;20058;-42
2022/08/13 05:41:06;;;;;;;3.67;2.53;;;18.50;48.50;;;21.09;37.47;97619.25;5069103;28;20194;-41
2022/08/13 05:43:36;;;;;;;2.63;2.10;;;18.50;48.70;;;21.11;37.29;97620.69;5068818;28;20044;-41
2022/08/13 05:46:09;;;;;;;4.13;2.53;;;18.50;48.40;;;21.14;37.01;97619.41;5069433;28;20396;-41
2022/08/13 05:48:55;;;;;;;2.53;2.33;;;18.50;48.90;;;21.18;37.29;97623.31;5068355;28;20258;-41
2022/08/13 05:51:31;;;;;;;2.85;2.58;;;18.50;48.70;;;21.23;37.01;97626.16;5069316;28;20052;-41
2022/08/13 05:54:19;;;;;;;7.28;2.65;;;18.60;48.70;;;21.28;37.08;97630.88;5069530;28;20051;-42
2022/08/13 05:57:07;;;;;;;4.03;2.35;;;18.70;48.30;;;21.29;37.09;97627.94;5069188;28;20567;-45
2022/08/13 06:05:16;;;;;;;3.63;2.42;;;18.90;48.30;;;21.47;36.98;97618.94;5066078;28;20067;-43
2022/08/13 06:07:44;;;;;;;2.83;2.50;;;19.00;48.00;;;21.47;37.30;97620.84;5067007;28;20138;-43
2022/08/13 06:10:14;;;;;;;5.78;2.60;;;19.00;48.10;;;21.51;37.33;97620.13;5069142;28;20381;-42
2022/08/13 06:12:43;;;;;;;2.65;2.40;;;19.00;48.10;;;21.55;37.43;97621.31;5068896;28;20287;-42
2022/08/13 06:15:26;;;;;;;5.88;2.60;;;19.10;47.90;;;21.65;37.40;97622.63;5068684;28;20057;-44
2022/08/13 06:18:15;;;;;;;2.80;2.55;;;19.20;47.80;;;21.71;36.98;97625.22;5068188;28;20052;-45
2022/08/13 06:20:59;;;;;;;3.70;2.92;;;19.20;47.60;;;21.75;36.83;97623.72;5067139;28;20056;-44
2022/08/13 06:23:36;;;;;;;4.07;2.83;;;19.30;47.80;;;21.76;36.85;97619.13;5068355;28;20052;-42
2022/08/13 06:26:09;;;;;;;2.88;2.22;;;19.30;47.90;;;21.79;37.12;97618.63;5069135;28;20495;-42
2022/08/13 06:28:47;;;;;;;3.53;2.40;;;19.30;47.80;;;21.78;36.98;97620.53;5067317;28;20048;-43
2022/08/13 06:31:16;;;;;;;4.57;2.20;;;19.30;47.80;;;21.79;36.92;97621.34;5067449;28;20057;-44
2022/08/13 06:33:57;;;;;;;4.38;2.22;;;19.30;47.70;;;21.85;37.25;97630.44;5068408;28;20053;-42
2022/08/13 06:36:45;;;;;;;2.72;2.20;;;19.40;47.70;;;21.92;36.70;97626.53;5067399;28;20053;-43
2022/08/13 06:39:15;;;;;;;3.70;2.10;;;19.50;47.30;;;21.95;36.90;97627.97;5068951;28;20044;-42
2022/08/13 06:41:45;;;;;;;2.83;2.40;;;19.60;47.10;;;21.97;36.51;97632.09;5066557;28;20044;-43
2022/08/13 06:44:33;;;;;;;4.43;2.15;;;19.70;47.10;;;22.03;36.49;97633.88;5068722;28;20052;-44
2022/08/13 06:47:04;;;;;;;4.47;2.30;;;19.70;46.80;;;22.05;36.89;97633.63;5068233;28;20336;-43
2022/08/13 06:49:34;;;;;;;2.95;2.63;;;19.80;46.90;;;22.13;36.71;97635.16;5067078;28;20057;-42
2022/08/13 06:52:22;;;;;;;3.28;2.45;;;19.80;46.60;;;22.20;36.27;97639.41;5068310;28;20059;-42
2022/08/13 06:54:51;;;;;;;3.30;2.35;;;19.90;46.50;;;22.23;36.36;97630.78;5067688;28;20049;-42
2022/08/13 06:57:20;;;;;;;3.53;2.40;;;19.90;46.70;;;22.29;36.54;97636.38;5067709;28;20048;-42
2022/08/13 06:59:49;;;;;;;3.35;2.20;;;20.00;46.70;;;22.36;36.53;97642.50;5065993;28;20048;-43
2022/08/13 07:02:42;;;;;;;3.55;2.40;;;20.00;46.60;;;22.47;36.69;97638.13;5067076;28;20045;-42
2022/08/13 07:05:12;;;;;;;3.22;2.08;;;20.10;46.60;;;22.50;36.36;97641.19;5066387;28;20048;-42
2022/08/13 07:07:48;;;;;;;2.55;2.35;;;20.20;46.30;;;22.52;36.24;97640.94;5065741;28;20060;-47
2022/08/13 07:10:16;;;;;;;2.58;2.15;;;20.20;46.30;;;22.57;36.08;97649.22;5070049;28;20051;-42
2022/08/13 07:12:44;;;;;;;3.05;2.60;;;20.30;46.20;;;22.55;36.25;97649.44;5088302;28;20242;-41
2022/08/13 07:15:16;;;;;;;4.18;2.20;;;20.20;46.20;;;22.56;36.64;97640.22;5103016;28;20245;-42
2022/08/13 07:18:06;;;;;;;3.30;2.47;;;20.30;46.30;;;22.65;36.59;97646.13;5087108;28;20058;-43
2022/08/13 07:20:36;;;;;;;2.40;2.20;;;20.40;46.20;;;22.72;36.28;97646.81;5087355;28;20040;-43
2022/08/13 07:23:05;;;;;;;2.90;2.70;;;20.40;46.00;;;22.81;35.79;97642.66;5086596;28;20040;-42
2022/08/13 07:25:57;;;;;;;3.10;2.30;;;20.50;46.00;;;22.90;35.94;97648.53;5088503;28;20052;-43
2022/08/13 07:28:31;;;;;;;2.63;2.42;;;20.60;45.80;;;22.99;35.91;97651.69;5085952;28;20056;-42
2022/08/13 07:31:41;;;;;;;3.30;2.40;;;20.60;45.60;;;23.11;35.85;97643.53;5087117;28;20055;-44
2022/08/13 07:34:32;;;;;;;2.55;2.35;;;20.70;45.60;;;23.15;35.56;97642.00;5087127;28;20042;-41
2022/08/13 07:37:03;;;;;;;2.90;2.60;;;20.70;45.60;;;23.17;35.37;97640.69;5087159;28;20339;-43
2022/08/13 07:39:34;;;;;;;3.67;2.30;;;20.80;45.40;;;23.23;35.90;97647.03;5087558;28;20046;-46
2022/08/13 07:42:21;;;;;;;3.55;2.50;;;20.90;45.50;;;23.30;35.36;97642.31;5087640;28;20058;-43
2022/08/13 07:44:58;;;;;;;4.97;2.60;;;20.90;45.40;;;23.31;35.48;97635.78;5087480;28;20050;-44
2022/08/13 07:47:50;;;;;;;4.15;2.70;;;21.00;45.30;;;23.36;35.58;97644.03;5086985;28;20068;-43
2022/08/13 07:50:42;;;;;;;6.70;3.20;;;21.00;45.30;;;23.41;35.23;97637.03;5086287;28;20056;-46
2022/08/13 07:53:32;;;;;;;5.43;3.70;;;21.10;45.10;;;23.45;35.12;97639.03;5085481;28;20325;-45
2022/08/13 07:56:29;;;;;;;3.25;2.50;;;21.10;44.90;;;23.54;35.07;97636.75;5086088;28;20050;-44
2022/08/13 07:59:10;;;;;;;2.83;2.50;;;21.20;44.70;;;23.56;35.25;97645.47;5086018;27;20054;-43
2022/08/13 08:01:54;;;;;;;4.35;2.67;;;21.30;44.60;;;23.63;34.94;97640.69;5096045;28;20043;-44
2022/08/13 08:04:43;;;;;;;4.90;2.63;;;21.30;44.80;;;23.66;35.15;97632.06;5090726;28;20043;-43
2022/08/13 08:07:17;;;;;;;3.20;2.70;;;21.30;44.60;;;23.71;35.01;97639.44;5090771;28;20056;-43
2022/08/13 08:09:45;;;;;;;3.20;2.90;;;21.40;44.70;;;23.74;34.98;97639.78;5096535;28;20062;-44
2022/08/13 08:15:00;;;;;;;4.78;3.05;;;21.50;44.40;;;23.85;34.91;97635.41;5093613;28;20048;-42
2022/08/13 08:17:31;;;;;;;2.90;2.50;;;21.50;44.30;;;23.89;35.00;97627.56;5095859;28;20055;-43
2022/08/13 08:20:21;;;;;;;8.75;2.95;;;21.60;44.30;;;23.93;34.87;97626.81;5101867;28;20366;-42
2022/08/13 08:23:05;;;;;;;3.28;2.95;;;21.60;44.30;;;24.03;34.61;97633.50;5106988;28;20056;-44
2022/08/13 08:25:41;;;;;;;2.60;2.40;;;21.70;44.00;;;24.08;34.77;97628.13;5105358;28;20052;-44
2022/08/13 08:28:30;;;;;;;4.35;2.60;;;21.80;43.90;;;24.13;34.81;97630.91;5105973;28;20051;-45
2022/08/13 08:31:07;;;;;;;3.17;2.78;;;21.80;43.90;;;24.21;34.57;97626.97;5106531;28;20345;-43
2022/08/13 08:33:57;;;;;;;4.53;2.60;;;21.90;43.90;;;24.26;34.76;97636.03;5106393;28;20066;-45
2022/08/13 08:36:29;;;;;;;3.08;2.78;;;22.00;43.80;;;24.31;34.56;97637.97;5106328;28;20043;-44
2022/08/13 08:42:38;;;;;;;3.83;2.95;;;22.00;43.50;;;24.44;34.33;97647.69;5105911;28;20036;-44
2022/08/13 08:45:22;;;;;;;4.18;2.90;;;22.10;43.20;;;24.47;34.28;97639.03;5107111;28;20056;-43
2022/08/13 08:48:15;;;;;;;2.53;2.30;;;22.20;43.20;;;24.52;34.08;97645.41;5105683;28;20363;-45
2022/08/13 08:50:43;;;;;;;3.78;3.00;;;22.20;43.30;;;24.59;34.00;97634.34;5107106;28;20047;-44
2022/08/13 08:53:21;;;;;;;5.13;2.63;;;22.30;43.10;;;24.65;33.94;97637.94;5107453;28;20073;-43
2022/08/13 08:56:09;;;;;;;3.08;2.78;;;22.40;42.90;;;24.77;33.49;97649.53;5106085;28;20063;-44
2022/08/13 08:58:41;;;;;;;4.60;2.63;;;22.50;42.80;;;24.80;33.47;97642.78;5105522;28;20055;-46
2022/08/13 09:01:11;;;;;;;4.63;2.50;;;22.60;42.10;;;24.83;33.48;97643.06;5105538;28;20330;-44
2022/08/13 09:03:42;;;;;;;3.92;2.58;;;22.60;42.00;;;24.88;33.33;97642.31;5106755;28;20245;-42
2022/08/13 09:06:28;;;;;;;3.53;2.85;;;22.60;41.50;;;24.95;33.35;97640.22;5065912;28;20342;-43
2022/08/13 09:09:18;;;;;;;3.22;2.80;;;22.70;41.80;;;25.02;33.20;97637.31;5066397;28;20056;-43
2022/08/13 09:11:52;;;;;;;2.63;2.42;;;22.70;41.90;;;25.02;33.07;97640.84;5065105;28;20046;-43
2022/08/13 09:14:30;;;;;;;4.72;2.70;;;22.70;41.60;;;25.07;33.04;97638.19;5066207;28;20056;-43
2022/08/13 09:17:04;;;;;;;3.35;3.05;;;22.80;41.10;;;25.12;32.91;97645.59;5065524;28;20189;-47
2022/08/13 09:19:41;;;;;;;2.60;2.40;;;22.80;41.20;;;25.18;32.72;97636.38;5065111;28;20045;-46
2022/08/13 09:22:21;;;;;;;9.85;2.80;;;22.90;41.30;;;25.24;32.84;97632.69;5066535;28;20055;-43
2022/08/13 09:24:59;;;;;;;3.28;2.60;;;23.00;41.10;;;25.34;32.58;97630.06;5066399;28;20048;-43
2022/08/13 09:27:30;;;;;;;5.25;2.33;;;23.10;41.10;;;25.45;32.40;97627.44;5065901;28;20346;-44
2022/08/13 09:30:19;;;;;;;3.17;2.88;;;23.20;40.80;;;25.56;32.16;97640.09;5062991;28;20061;-43
2022/08/13 09:32:58;;;;;;;3.35;2.63;;;23.30;40.30;;;25.67;32.04;97630.94;5065957;28;20249;-43
2022/08/13 09:35:30;;;;;;;4.85;2.65;;;23.40;39.70;;;25.70;31.28;97618.69;5084356;28;20241;-42
2022/08/13 09:38:07;;;;;;;2.35;2.15;;;23.40;39.10;;;25.74;31.39;97611.63;5084343;28;20050;-44
2022/08/13 09:41:17;;;;;;;3.25;2.50;;;23.50;39.00;;;25.85;31.18;97610.63;5087213;28;20056;-46
2022/08/13 09:43:47;;;;;;;5.32;2.30;;;23.60;38.50;;;25.90;31.30;97602.50;5087110;28;20047;-43
2022/08/13 09:46:23;;;;;;;3.47;2.70;;;23.60;39.20;;;25.94;31.31;97608.28;5089414;28;20282;-43
2022/08/13 09:48:58;;;;;;;4.05;2.67;;;23.70;39.10;;;26.04;31.36;97602.06;5087157;28;20055;-47
2022/08/13 09:51:31;;;;;;;3.95;2.67;;;23.80;38.90;;;26.08;30.99;97601.28;5089778;28;20356;-43
2022/08/13 09:54:22;;;;;;;3.10;2.80;;;23.90;38.80;;;26.20;30.71;97603.81;5089521;28;20573;-43
2022/08/13 09:56:58;;;;;;;2.72;2.45;;;23.90;38.50;;;26.20;30.48;97601.09;5088631;28;20048;-43
2022/08/13 09:59:30;;;;;;;2.88;2.30;;;24.00;38.10;;;26.25;30.18;97597.56;5088641;28;20078;-43
2022/08/13 10:02:12;;;;;;;3.50;2.40;;;24.00;37.80;;;26.33;30.52;97597.88;5087776;28;20054;-42
2022/08/13 10:04:45;;;;;;;3.10;2.28;;;24.10;37.60;;;26.40;30.27;97599.56;5090411;28;20066;-46
2022/08/13 10:07:14;;;;;;;3.60;2.20;;;24.10;37.40;;;26.43;29.64;97599.84;5088271;28;20051;-43
2022/08/13 10:09:49;;;;;;;3.13;2.83;;;24.20;37.10;;;26.49;29.54;97587.06;5089049;28;20054;-42
2022/08/13 10:12:38;;;;;;;2.95;2.25;;;24.30;37.70;;;26.58;29.39;97590.94;5088507;28;20050;-44
2022/08/13 10:15:09;;;;;;;2.90;2.30;;;24.40;36.40;;;26.61;29.33;97593.13;5087557;28;20246;-43
2022/08/13 10:17:53;;;;;;;;;;;24.50;36.50;;;26.99;29.18;97599.31;5090307;28;20050;-44
2022/08/13 10:20:33;;;;;;;4.45;2.30;;;24.50;35.30;;;26.88;28.97;97587.50;5088740;28;19924;-43
2022/08/13 10:23:08;;;;;;;2.80;2.55;;;24.50;36.40;;;26.85;28.98;97592.69;5088580;28;20052;-44
2022/08/13 10:25:37;;;;;;;4.95;2.30;;;24.60;36.00;;;26.91;28.80;97589.72;5089768;28;20040;-44
2022/08/13 10:28:34;;;;;;;2.85;2.58;;;24.70;35.90;;;27.05;28.21;97597.41;5088191;28;20264;-43
2022/08/13 10:31:07;;;;;;;2.75;2.53;;;24.80;33.50;;;27.06;28.09;97582.63;5088745;28;20062;-45
2022/08/13 10:33:55;;;;;;;;;;;24.90;34.40;;;27.40;27.89;97577.56;5089144;28;20056;-46
2022/08/13 10:36:28;;;;;;;2.90;2.70;;;24.90;33.20;;;27.23;27.82;97577.75;5087976;28;20146;-45
2022/08/13 10:39:04;;;;;;;2.97;2.30;;;24.90;34.50;;;27.23;27.55;97571.47;5087937;28;20058;-44
2022/08/13 10:41:42;;;;;;;3.25;2.20;;;24.90;34.20;;;27.27;27.36;97572.59;5088385;28;20241;-44
2022/08/13 10:44:31;;;;;;;2.40;2.20;;;25.00;34.10;;;27.39;27.13;97567.69;5087528;28;20052;-45
2022/08/13 10:46:59;;;;;;;4.70;2.60;;;25.10;33.40;;;27.42;27.04;97560.88;5087698;28;20052;-45
2022/08/13 10:49:29;;;;;;;2.72;2.53;;;25.20;33.20;;;27.49;27.08;97561.41;5088323;28;20082;-43
2022/08/13 10:52:00;;;;;;;2.78;2.58;;;25.30;33.20;;;27.55;26.35;97565.81;5086476;28;20070;-44
2022/08/13 10:54:33;;;;;;;2.22;2.03;;;25.40;32.30;;;27.62;26.45;97562.78;5085740;28;20247;-44
2022/08/13 10:57:07;;;;;;;3.42;2.40;;;25.50;31.80;;;27.69;25.67;97558.69;5086991;28;20374;-46
2022/08/13 10:59:45;;;;;;;3.72;2.30;;;25.50;30.70;;;27.78;26.23;97571.81;5088880;28;20052;-47
2022/08/13 11:02:13;;;;;;;2.92;2.58;;;25.60;30.90;;;27.82;26.17;97548.28;5087528;28;20388;-43
2022/08/13 11:04:48;;;;;;;2.38;2.08;;;25.70;31.10;;;27.89;25.93;97568.00;5086437;28;20252;-45
2022/08/13 11:07:21;;;;;;;2.17;1.98;;;25.70;31.00;;;27.93;25.66;97555.41;5086953;28;20062;-43
2022/08/13 11:09:52;;;;;;;4.45;2.20;;;25.80;30.30;;;27.96;24.70;97551.31;5087886;28;20107;-44
2022/08/13 11:12:22;;;;;;;3.47;2.00;;;25.70;30.00;;;27.99;24.84;97558.97;5087733;28;20051;-45
2022/08/13 11:14:54;;;;;;;2.67;2.47;;;25.80;30.00;;;28.01;25.11;97570.44;5087993;28;20054;-44
2022/08/13 11:17:23;;;;;;;2.88;2.58;;;25.80;30.00;;;28.02;24.77;97561.16;5086717;28;20250;-43
2022/08/13 11:20:17;;;;;;;2.22;1.83;;;25.80;29.80;;;28.10;23.84;97555.13;5087057;28;20253;-42
2022/08/13 11:22:53;;;;;;;2.15;1.95;;;25.80;29.20;;;28.15;23.96;97568.78;5086267;28;20048;-44
2022/08/13 11:25:23;;;;;;;3.25;2.72;;;25.90;29.10;;;28.20;23.64;97568.78;5087306;28;20249;-43
2022/08/13 11:28:13;;;;;;;2.45;2.25;;;25.90;28.90;;;28.25;23.85;97559.75;5086414;28;20334;-42
2022/08/13 11:30:48;;;;;;;3.25;2.10;;;26.00;28.80;;;28.27;23.76;97557.53;5084749;28;20051;-45
2022/08/13 11:33:23;;;;;;;2.42;2.15;;;26.00;29.30;;;28.33;23.73;97553.69;5086807;28;20044;-44